sensor_id;sensor_type;location;lat;lon;timestamp;pressure;altitude;pressure_sealevel;temperature;humidity
70488;BME280;57976;48.174;16.370;2024-01-25T00:02:01;99818.63;;;11.35;71.66
70488;BME280;57976;48.174;16.370;2024-01-25T00:04:05;99823.08;;;11.34;71.93
70488;BME280;57976;48.174;16.370;2024-01-25T00:06:08;99814.95;;;11.32;71.49
70488;BME280;57976;48.174;16.370;2024-01-25T00:08:11;99816.00;;;11.31;71.48
70488;BME280;57976;48.174;16.370;2024-01-25T00:10:15;99821.09;;;11.31;71.32
70488;BME280;57976;48.174;16.370;2024-01-25T00:12:18;99807.50;;;11.30;70.86
70488;BME280;57976;48.174;16.370;2024-01-25T00:14:21;99812.46;;;11.30;71.06
70488;BME280;57976;48.174;16.370;2024-01-25T00:16:27;99819.77;;;11.30;70.76
70488;BME280;57976;48.174;16.370;2024-01-25T00:18:33;99807.11;;;11.32;70.22
70488;BME280;57976;48.174;16.370;2024-01-25T00:20:36;99812.73;;;11.31;70.59
70488;BME280;57976;48.174;16.370;2024-01-25T00:22:41;99810.17;;;11.31;70.79
70488;BME280;57976;48.174;16.370;2024-01-25T00:24:46;99806.34;;;11.30;71.06
70488;BME280;57976;48.174;16.370;2024-01-25T00:26:49;99805.77;;;11.29;71.28
70488;BME280;57976;48.174;16.370;2024-01-25T00:28:53;99809.21;;;11.30;71.41
70488;BME280;57976;48.174;16.370;2024-01-25T00:30:56;99803.16;;;11.27;71.38
70488;BME280;57976;48.174;16.370;2024-01-25T00:33:02;99815.27;;;11.27;71.51
70488;BME280;57976;48.174;16.370;2024-01-25T00:35:10;99812.54;;;11.24;71.86
70488;BME280;57976;48.174;16.370;2024-01-25T00:37:15;99813.80;;;11.23;72.21
70488;BME280;57976;48.174;16.370;2024-01-25T00:39:21;99817.08;;;11.22;72.02
70488;BME280;57976;48.174;16.370;2024-01-25T00:41:25;99814.65;;;11.22;72.13
70488;BME280;57976;48.174;16.370;2024-01-25T00:43:29;99824.48;;;11.20;72.42
70488;BME280;57976;48.174;16.370;2024-01-25T00:45:34;99820.03;;;11.22;72.11
70488;BME280;57976;48.174;16.370;2024-01-25T00:47:43;99821.05;;;11.21;72.46
70488;BME280;57976;48.174;16.370;2024-01-25T00:49:53;99811.55;;;11.18;72.23
70488;BME280;57976;48.174;16.370;2024-01-25T00:51:59;99810.88;;;11.18;72.02
70488;BME280;57976;48.174;16.370;2024-01-25T00:54:03;99834.67;;;11.17;72.09
70488;BME280;57976;48.174;16.370;2024-01-25T00:56:10;99834.73;;;11.18;72.09
70488;BME280;57976;48.174;16.370;2024-01-25T00:58:14;99823.66;;;11.20;71.83
70488;BME280;57976;48.174;16.370;2024-01-25T01:00:18;99823.69;;;11.18;72.00
70488;BME280;57976;48.174;16.370;2024-01-25T01:02:24;99825.92;;;11.16;72.04
70488;BME280;57976;48.174;16.370;2024-01-25T01:04:28;99826.81;;;11.14;71.64
70488;BME280;57976;48.174;16.370;2024-01-25T01:06:32;99826.56;;;11.13;71.29
70488;BME280;57976;48.174;16.370;2024-01-25T01:08:41;99845.14;;;11.13;71.33
70488;BME280;57976;48.174;16.370;2024-01-25T01:10:44;99828.44;;;11.13;71.22
70488;BME280;57976;48.174;16.370;2024-01-25T01:12:47;99820.27;;;11.11;71.24
70488;BME280;57976;48.174;16.370;2024-01-25T01:14:50;99825.30;;;11.09;70.96
70488;BME280;57976;48.174;16.370;2024-01-25T01:16:53;99817.94;;;11.08;71.22
70488;BME280;57976;48.174;16.370;2024-01-25T01:18:56;99815.73;;;11.09;70.65
70488;BME280;57976;48.174;16.370;2024-01-25T01:21:02;99813.55;;;11.08;70.89
70488;BME280;57976;48.174;16.370;2024-01-25T01:23:06;99820.69;;;11.07;70.47
70488;BME280;57976;48.174;16.370;2024-01-25T01:25:11;99818.48;;;11.08;70.77
70488;BME280;57976;48.174;16.370;2024-01-25T01:27:17;99819.81;;;11.06;70.24
70488;BME280;57976;48.174;16.370;2024-01-25T01:29:19;99816.05;;;11.05;70.38
70488;BME280;57976;48.174;16.370;2024-01-25T01:31:26;99826.27;;;11.03;70.37
70488;BME280;57976;48.174;16.370;2024-01-25T01:33:28;99822.17;;;11.03;70.34
70488;BME280;57976;48.174;16.370;2024-01-25T01:35:34;99815.39;;;11.02;70.84
70488;BME280;57976;48.174;16.370;2024-01-25T01:37:42;99824.32;;;11.00;70.14
70488;BME280;57976;48.174;16.370;2024-01-25T01:39:45;99826.95;;;10.97;70.27
70488;BME280;57976;48.174;16.370;2024-01-25T01:41:48;99816.73;;;10.97;70.60
70488;BME280;57976;48.174;16.370;2024-01-25T01:43:53;99821.44;;;10.96;70.27
70488;BME280;57976;48.174;16.370;2024-01-25T01:45:59;99815.91;;;10.95;70.44
70488;BME280;57976;48.174;16.370;2024-01-25T01:48:09;99822.16;;;10.93;70.55
70488;BME280;57976;48.174;16.370;2024-01-25T01:50:17;99829.92;;;10.91;70.24
70488;BME280;57976;48.174;16.370;2024-01-25T01:52:21;99826.23;;;10.90;70.17
70488;BME280;57976;48.174;16.370;2024-01-25T01:54:27;99826.68;;;10.90;70.66
70488;BME280;57976;48.174;16.370;2024-01-25T01:56:30;99824.61;;;10.88;70.54
70488;BME280;57976;48.174;16.370;2024-01-25T01:58:37;99820.87;;;10.86;70.50
70488;BME280;57976;48.174;16.370;2024-01-25T02:00:41;99814.86;;;10.86;70.88
70488;BME280;57976;48.174;16.370;2024-01-25T02:02:47;99824.29;;;10.85;70.48
70488;BME280;57976;48.174;16.370;2024-01-25T02:04:53;99819.33;;;10.85;70.52
70488;BME280;57976;48.174;16.370;2024-01-25T02:06:56;99829.40;;;10.83;70.41
70488;BME280;57976;48.174;16.370;2024-01-25T02:08:59;99812.80;;;10.84;70.46
70488;BME280;57976;48.174;16.370;2024-01-25T02:11:02;99808.23;;;10.82;70.40
70488;BME280;57976;48.174;16.370;2024-01-25T02:13:08;99806.20;;;10.80;70.77
70488;BME280;57976;48.174;16.370;2024-01-25T02:15:11;99824.12;;;10.80;70.61
70488;BME280;57976;48.174;16.370;2024-01-25T02:17:13;99807.47;;;10.80;70.32
70488;BME280;57976;48.174;16.370;2024-01-25T02:19:19;99815.58;;;10.79;70.14
70488;BME280;57976;48.174;16.370;2024-01-25T02:21:22;99816.72;;;10.79;70.86
70488;BME280;57976;48.174;16.370;2024-01-25T02:23:27;99810.89;;;10.78;70.58
70488;BME280;57976;48.174;16.370;2024-01-25T02:25:30;99817.70;;;10.78;70.83
70488;BME280;57976;48.174;16.370;2024-01-25T02:27:35;99807.91;;;10.78;70.73
70488;BME280;57976;48.174;16.370;2024-01-25T02:29:38;99819.64;;;10.78;70.71
70488;BME280;57976;48.174;16.370;2024-01-25T02:31:47;99825.11;;;10.77;70.82
70488;BME280;57976;48.174;16.370;2024-01-25T02:33:50;99810.48;;;10.77;70.77
70488;BME280;57976;48.174;16.370;2024-01-25T02:35:53;99809.20;;;10.76;71.10
70488;BME280;57976;48.174;16.370;2024-01-25T02:37:55;99814.13;;;10.77;70.97
70488;BME280;57976;48.174;16.370;2024-01-25T02:39:58;99815.35;;;10.77;71.20
70488;BME280;57976;48.174;16.370;2024-01-25T02:42:00;99814.27;;;10.75;71.37
70488;BME280;57976;48.174;16.370;2024-01-25T02:44:09;99813.63;;;10.76;71.10
70488;BME280;57976;48.174;16.370;2024-01-25T02:46:12;99811.73;;;10.75;71.16
70488;BME280;57976;48.174;16.370;2024-01-25T02:48:14;99813.34;;;10.73;71.25
70488;BME280;57976;48.174;16.370;2024-01-25T02:50:19;99814.59;;;10.71;70.80
70488;BME280;57976;48.174;16.370;2024-01-25T02:52:24;99818.08;;;10.71;71.33
70488;BME280;57976;48.174;16.370;2024-01-25T02:54:30;99826.27;;;10.69;71.09
70488;BME280;57976;48.174;16.370;2024-01-25T02:56:32;99809.98;;;10.69;71.16
70488;BME280;57976;48.174;16.370;2024-01-25T02:58:35;99813.92;;;10.68;70.82
70488;BME280;57976;48.174;16.370;2024-01-25T03:00:37;99813.17;;;10.67;70.69
70488;BME280;57976;48.174;16.370;2024-01-25T03:02:43;99810.14;;;10.67;70.48
70488;BME280;57976;48.174;16.370;2024-01-25T03:04:47;99800.86;;;10.66;70.34
70488;BME280;57976;48.174;16.370;2024-01-25T03:06:50;99804.80;;;10.66;70.74
70488;BME280;57976;48.174;16.370;2024-01-25T03:08:53;99805.95;;;10.64;70.57
70488;BME280;57976;48.174;16.370;2024-01-25T03:10:56;99806.51;;;10.62;70.33
70488;BME280;57976;48.174;16.370;2024-01-25T03:13:01;99809.19;;;10.64;69.83
70488;BME280;57976;48.174;16.370;2024-01-25T03:15:07;99799.09;;;10.62;69.77
70488;BME280;57976;48.174;16.370;2024-01-25T03:17:13;99787.94;;;10.62;69.76
70488;BME280;57976;48.174;16.370;2024-01-25T03:19:16;99790.84;;;10.61;69.40
70488;BME280;57976;48.174;16.370;2024-01-25T03:21:18;99794.08;;;10.61;69.42
70488;BME280;57976;48.174;16.370;2024-01-25T03:23:21;99800.59;;;10.60;69.41
70488;BME280;57976;48.174;16.370;2024-01-25T03:25:23;99792.77;;;10.60;68.78
70488;BME280;57976;48.174;16.370;2024-01-25T03:27:26;99785.34;;;10.60;69.50
70488;BME280;57976;48.174;16.370;2024-01-25T03:29:29;99795.30;;;10.60;69.37
70488;BME280;57976;48.174;16.370;2024-01-25T03:31:32;99788.99;;;10.60;69.80
70488;BME280;57976;48.174;16.370;2024-01-25T03:33:35;99796.61;;;10.59;70.22
70488;BME280;57976;48.174;16.370;2024-01-25T03:35:39;99787.39;;;10.59;70.18
70488;BME280;57976;48.174;16.370;2024-01-25T03:37:42;99791.73;;;10.60;70.14
70488;BME280;57976;48.174;16.370;2024-01-25T03:39:44;99784.76;;;10.59;70.99
70488;BME280;57976;48.174;16.370;2024-01-25T03:41:50;99778.39;;;10.57;71.21
70488;BME280;57976;48.174;16.370;2024-01-25T03:43:52;99777.40;;;10.57;71.36
70488;BME280;57976;48.174;16.370;2024-01-25T03:45:56;99778.90;;;10.56;71.66
70488;BME280;57976;48.174;16.370;2024-01-25T03:47:59;99785.33;;;10.54;72.42
70488;BME280;57976;48.174;16.370;2024-01-25T03:50:02;99772.31;;;10.53;72.54
70488;BME280;57976;48.174;16.370;2024-01-25T03:52:06;99765.32;;;10.51;73.22
70488;BME280;57976;48.174;16.370;2024-01-25T03:54:12;99772.63;;;10.51;72.90
70488;BME280;57976;48.174;16.370;2024-01-25T03:56:19;99766.14;;;10.49;72.84
70488;BME280;57976;48.174;16.370;2024-01-25T03:58:25;99779.09;;;10.46;73.63
70488;BME280;57976;48.174;16.370;2024-01-25T04:00:36;99779.85;;;10.44;73.80
70488;BME280;57976;48.174;16.370;2024-01-25T04:02:41;99770.80;;;10.41;74.18
70488;BME280;57976;48.174;16.370;2024-01-25T04:04:45;99775.58;;;10.40;74.72
70488;BME280;57976;48.174;16.370;2024-01-25T04:06:47;99782.40;;;10.38;74.79
70488;BME280;57976;48.174;16.370;2024-01-25T04:08:54;99785.25;;;10.36;74.96
70488;BME280;57976;48.174;16.370;2024-01-25T04:10:56;99774.76;;;10.35;74.73
70488;BME280;57976;48.174;16.370;2024-01-25T04:12:59;99787.31;;;10.34;75.30
70488;BME280;57976;48.174;16.370;2024-01-25T04:15:06;99794.11;;;10.33;75.34
70488;BME280;57976;48.174;16.370;2024-01-25T04:17:09;99788.68;;;10.31;75.49
70488;BME280;57976;48.174;16.370;2024-01-25T04:19:15;99787.49;;;10.31;75.32
70488;BME280;57976;48.174;16.370;2024-01-25T04:21:18;99782.72;;;10.29;75.53
70488;BME280;57976;48.174;16.370;2024-01-25T04:23:23;99781.39;;;10.29;75.12
70488;BME280;57976;48.174;16.370;2024-01-25T04:25:26;99782.23;;;10.29;74.82
70488;BME280;57976;48.174;16.370;2024-01-25T04:27:30;99781.45;;;10.30;75.23
70488;BME280;57976;48.174;16.370;2024-01-25T04:29:33;99784.18;;;10.29;74.85
70488;BME280;57976;48.174;16.370;2024-01-25T04:31:43;99783.60;;;10.28;74.54
70488;BME280;57976;48.174;16.370;2024-01-25T04:33:46;99786.16;;;10.26;74.80
70488;BME280;57976;48.174;16.370;2024-01-25T04:35:51;99778.54;;;10.26;74.93
70488;BME280;57976;48.174;16.370;2024-01-25T04:37:54;99789.55;;;10.26;74.77
70488;BME280;57976;48.174;16.370;2024-01-25T04:39:59;99785.80;;;10.26;74.81
70488;BME280;57976;48.174;16.370;2024-01-25T04:42:03;99786.82;;;10.27;74.46
70488;BME280;57976;48.174;16.370;2024-01-25T04:44:10;99795.12;;;10.25;74.69
70488;BME280;57976;48.174;16.370;2024-01-25T04:46:12;99792.03;;;10.24;75.05
70488;BME280;57976;48.174;16.370;2024-01-25T04:48:17;99785.23;;;10.25;74.82
70488;BME280;57976;48.174;16.370;2024-01-25T04:50:21;99788.56;;;10.25;74.84
70488;BME280;57976;48.174;16.370;2024-01-25T04:52:26;99794.30;;;10.25;75.20
70488;BME280;57976;48.174;16.370;2024-01-25T04:54:32;99788.64;;;10.25;74.86
70488;BME280;57976;48.174;16.370;2024-01-25T04:56:34;99797.65;;;10.24;75.20
70488;BME280;57976;48.174;16.370;2024-01-25T04:58:37;99793.90;;;10.22;75.08
70488;BME280;57976;48.174;16.370;2024-01-25T05:00:40;99785.09;;;10.22;75.51
70488;BME280;57976;48.174;16.370;2024-01-25T05:02:43;99784.14;;;10.21;75.30
70488;BME280;57976;48.174;16.370;2024-01-25T05:04:46;99792.63;;;10.21;75.63
70488;BME280;57976;48.174;16.370;2024-01-25T05:06:49;99786.23;;;10.21;75.72
70488;BME280;57976;48.174;16.370;2024-01-25T05:08:56;99787.38;;;10.21;75.59
70488;BME280;57976;48.174;16.370;2024-01-25T05:11:00;99775.05;;;10.18;75.43
70488;BME280;57976;48.174;16.370;2024-01-25T05:13:03;99782.38;;;10.18;75.99
70488;BME280;57976;48.174;16.370;2024-01-25T05:15:07;99786.66;;;10.18;75.64
70488;BME280;57976;48.174;16.370;2024-01-25T05:17:10;99788.52;;;10.18;75.14
70488;BME280;57976;48.174;16.370;2024-01-25T05:19:15;99781.60;;;10.18;75.53
70488;BME280;57976;48.174;16.370;2024-01-25T05:21:18;99781.20;;;10.19;75.82
70488;BME280;57976;48.174;16.370;2024-01-25T05:23:21;99774.17;;;10.18;75.73
70488;BME280;57976;48.174;16.370;2024-01-25T05:25:27;99777.86;;;10.17;75.73
70488;BME280;57976;48.174;16.370;2024-01-25T05:27:29;99778.64;;;10.17;75.71
70488;BME280;57976;48.174;16.370;2024-01-25T05:29:35;99772.16;;;10.17;75.58
70488;BME280;57976;48.174;16.370;2024-01-25T05:31:44;99779.55;;;10.18;75.74
70488;BME280;57976;48.174;16.370;2024-01-25T05:33:46;99768.40;;;10.17;75.28
70488;BME280;57976;48.174;16.370;2024-01-25T05:35:49;99774.05;;;10.18;75.44
70488;BME280;57976;48.174;16.370;2024-01-25T05:37:54;99770.40;;;10.17;75.48
70488;BME280;57976;48.174;16.370;2024-01-25T05:39:57;99756.77;;;10.17;75.98
70488;BME280;57976;48.174;16.370;2024-01-25T05:42:04;99758.73;;;10.15;75.76
70488;BME280;57976;48.174;16.370;2024-01-25T05:44:10;99759.61;;;10.15;76.11
70488;BME280;57976;48.174;16.370;2024-01-25T05:46:12;99753.95;;;10.14;75.82
70488;BME280;57976;48.174;16.370;2024-01-25T05:48:16;99757.87;;;10.14;75.70
70488;BME280;57976;48.174;16.370;2024-01-25T05:50:20;99748.20;;;10.12;76.24
70488;BME280;57976;48.174;16.370;2024-01-25T05:52:23;99751.75;;;10.12;76.19
70488;BME280;57976;48.174;16.370;2024-01-25T05:54:29;99739.41;;;10.09;76.61
70488;BME280;57976;48.174;16.370;2024-01-25T05:56:32;99742.95;;;10.08;76.22
70488;BME280;57976;48.174;16.370;2024-01-25T05:58:38;99740.46;;;10.07;76.06
70488;BME280;57976;48.174;16.370;2024-01-25T06:00:45;99748.37;;;10.06;76.39
70488;BME280;57976;48.174;16.370;2024-01-25T06:02:50;99745.52;;;10.04;76.08
70488;BME280;57976;48.174;16.370;2024-01-25T06:04:56;99760.22;;;10.03;76.31
70488;BME280;57976;48.174;16.370;2024-01-25T06:06:59;99752.66;;;10.01;76.63
70488;BME280;57976;48.174;16.370;2024-01-25T06:09:02;99757.19;;;10.00;76.16
70488;BME280;57976;48.174;16.370;2024-01-25T06:11:15;99752.40;;;9.99;76.20
70488;BME280;57976;48.174;16.370;2024-01-25T06:13:18;99747.09;;;9.98;76.47
70488;BME280;57976;48.174;16.370;2024-01-25T06:15:23;99757.45;;;9.95;76.45
70488;BME280;57976;48.174;16.370;2024-01-25T06:17:26;99768.13;;;9.94;77.15
70488;BME280;57976;48.174;16.370;2024-01-25T06:19:28;99766.74;;;9.92;76.74
70488;BME280;57976;48.174;16.370;2024-01-25T06:21:31;99775.27;;;9.89;77.00
70488;BME280;57976;48.174;16.370;2024-01-25T06:23:40;99783.15;;;9.87;76.87
70488;BME280;57976;48.174;16.370;2024-01-25T06:25:42;99788.86;;;9.85;77.00
70488;BME280;57976;48.174;16.370;2024-01-25T06:27:45;99785.67;;;9.84;77.08
70488;BME280;57976;48.174;16.370;2024-01-25T06:29:48;99782.73;;;9.83;77.23
70488;BME280;57976;48.174;16.370;2024-01-25T06:31:53;99785.59;;;9.83;77.72
70488;BME280;57976;48.174;16.370;2024-01-25T06:33:56;99792.82;;;9.82;77.60
70488;BME280;57976;48.174;16.370;2024-01-25T06:36:02;99790.92;;;9.80;77.42
70488;BME280;57976;48.174;16.370;2024-01-25T06:38:07;99806.14;;;9.79;77.36
70488;BME280;57976;48.174;16.370;2024-01-25T06:40:14;99810.86;;;9.81;77.65
70488;BME280;57976;48.174;16.370;2024-01-25T06:42:17;99816.86;;;9.80;77.02
70488;BME280;57976;48.174;16.370;2024-01-25T06:44:22;99826.31;;;9.79;77.04
70488;BME280;57976;48.174;16.370;2024-01-25T06:46:25;99832.58;;;9.80;77.16
70488;BME280;57976;48.174;16.370;2024-01-25T06:48:30;99825.23;;;9.82;77.18
70488;BME280;57976;48.174;16.370;2024-01-25T06:50:34;99831.33;;;9.82;77.59
70488;BME280;57976;48.174;16.370;2024-01-25T06:52:36;99847.96;;;9.82;77.65
70488;BME280;57976;48.174;16.370;2024-01-25T06:54:39;99846.48;;;9.83;77.61
70488;BME280;57976;48.174;16.370;2024-01-25T06:56:42;99845.34;;;9.83;77.53
70488;BME280;57976;48.174;16.370;2024-01-25T06:58:48;99840.74;;;9.83;77.96
70488;BME280;57976;48.174;16.370;2024-01-25T07:00:51;99847.43;;;9.82;77.98
70488;BME280;57976;48.174;16.370;2024-01-25T07:02:54;99848.30;;;9.82;78.09
70488;BME280;57976;48.174;16.370;2024-01-25T07:05:01;99856.73;;;9.83;78.20
70488;BME280;57976;48.174;16.370;2024-01-25T07:07:05;99861.13;;;9.85;78.38
70488;BME280;57976;48.174;16.370;2024-01-25T07:09:07;99871.91;;;9.85;78.19
70488;BME280;57976;48.174;16.370;2024-01-25T07:11:10;99874.77;;;9.85;77.89
70488;BME280;57976;48.174;16.370;2024-01-25T07:13:13;99874.39;;;9.84;77.99
70488;BME280;57976;48.174;16.370;2024-01-25T07:15:18;99873.12;;;9.84;78.36
70488;BME280;57976;48.174;16.370;2024-01-25T07:17:21;99863.21;;;9.84;78.23
70488;BME280;57976;48.174;16.370;2024-01-25T07:19:24;99867.14;;;9.84;78.67
70488;BME280;57976;48.174;16.370;2024-01-25T07:21:27;99869.36;;;9.84;78.28
70488;BME280;57976;48.174;16.370;2024-01-25T07:23:33;99869.14;;;9.83;77.96
70488;BME280;57976;48.174;16.370;2024-01-25T07:25:36;99859.02;;;9.83;78.18
70488;BME280;57976;48.174;16.370;2024-01-25T07:27:39;99865.15;;;9.82;78.09
70488;BME280;57976;48.174;16.370;2024-01-25T07:29:44;99871.30;;;9.86;78.09
70488;BME280;57976;48.174;16.370;2024-01-25T07:31:47;99871.45;;;9.87;77.56
70488;BME280;57976;48.174;16.370;2024-01-25T07:33:56;99881.63;;;9.89;77.87
70488;BME280;57976;48.174;16.370;2024-01-25T07:36:01;99889.17;;;9.89;78.05
70488;BME280;57976;48.174;16.370;2024-01-25T07:38:07;99904.13;;;9.90;78.09
70488;BME280;57976;48.174;16.370;2024-01-25T07:40:12;99890.27;;;9.89;77.99
70488;BME280;57976;48.174;16.370;2024-01-25T07:42:15;99885.11;;;9.89;78.57
70488;BME280;57976;48.174;16.370;2024-01-25T07:44:18;99898.20;;;9.91;77.90
70488;BME280;57976;48.174;16.370;2024-01-25T07:46:23;99922.84;;;9.91;77.73
70488;BME280;57976;48.174;16.370;2024-01-25T07:48:28;99925.88;;;9.91;77.98
70488;BME280;57976;48.174;16.370;2024-01-25T07:50:31;99944.38;;;9.90;77.95
70488;BME280;57976;48.174;16.370;2024-01-25T07:52:35;99936.47;;;9.88;77.91
70488;BME280;57976;48.174;16.370;2024-01-25T07:54:37;99930.02;;;9.86;77.94
70488;BME280;57976;48.174;16.370;2024-01-25T07:56:43;99927.34;;;9.86;78.66
70488;BME280;57976;48.174;16.370;2024-01-25T07:58:49;99929.65;;;9.86;78.60
70488;BME280;57976;48.174;16.370;2024-01-25T08:00:52;99931.44;;;9.86;78.42
70488;BME280;57976;48.174;16.370;2024-01-25T08:02:57;99931.41;;;9.86;77.96
70488;BME280;57976;48.174;16.370;2024-01-25T08:05:00;99935.59;;;9.84;77.70
70488;BME280;57976;48.174;16.370;2024-01-25T08:07:04;99944.48;;;9.85;76.05
70488;BME280;57976;48.174;16.370;2024-01-25T08:09:09;99959.48;;;9.86;74.94
70488;BME280;57976;48.174;16.370;2024-01-25T08:11:12;99946.05;;;9.87;75.04
70488;BME280;57976;48.174;16.370;2024-01-25T08:13:18;99944.67;;;9.88;75.03
70488;BME280;57976;48.174;16.370;2024-01-25T08:15:24;99937.95;;;9.88;75.01
70488;BME280;57976;48.174;16.370;2024-01-25T08:17:26;99946.79;;;9.89;74.39
70488;BME280;57976;48.174;16.370;2024-01-25T08:19:35;99954.98;;;9.92;73.92
70488;BME280;57976;48.174;16.370;2024-01-25T08:21:38;99946.98;;;9.94;73.72
70488;BME280;57976;48.174;16.370;2024-01-25T08:23:43;99944.56;;;9.98;73.12
70488;BME280;57976;48.174;16.370;2024-01-25T08:25:46;99960.31;;;9.99;70.98
70488;BME280;57976;48.174;16.370;2024-01-25T08:27:49;99946.63;;;10.01;71.38
70488;BME280;57976;48.174;16.370;2024-01-25T08:29:52;99945.63;;;10.02;71.59
70488;BME280;57976;48.174;16.370;2024-01-25T08:31:54;99942.67;;;10.04;71.42
70488;BME280;57976;48.174;16.370;2024-01-25T08:34:00;99958.60;;;10.08;70.26
70488;BME280;57976;48.174;16.370;2024-01-25T08:36:06;99948.73;;;10.10;68.15
70488;BME280;57976;48.174;16.370;2024-01-25T08:38:09;99958.50;;;10.12;66.19
70488;BME280;57976;48.174;16.370;2024-01-25T08:40:15;99947.27;;;10.15;65.46
70488;BME280;57976;48.174;16.370;2024-01-25T08:42:18;99949.88;;;10.17;66.19
70488;BME280;57976;48.174;16.370;2024-01-25T08:44:22;99949.80;;;10.19;65.18
70488;BME280;57976;48.174;16.370;2024-01-25T08:46:25;99948.11;;;10.21;65.19
70488;BME280;57976;48.174;16.370;2024-01-25T08:48:27;99953.60;;;10.24;64.72
70488;BME280;57976;48.174;16.370;2024-01-25T08:50:30;99952.56;;;10.26;64.83
70488;BME280;57976;48.174;16.370;2024-01-25T08:52:33;99949.16;;;10.27;64.34
70488;BME280;57976;48.174;16.370;2024-01-25T08:54:37;99950.83;;;10.28;65.13
70488;BME280;57976;48.174;16.370;2024-01-25T08:56:39;99946.27;;;10.27;66.00
70488;BME280;57976;48.174;16.370;2024-01-25T08:58:42;99936.65;;;10.25;66.79
70488;BME280;57976;48.174;16.370;2024-01-25T09:00:48;99938.77;;;10.24;67.07
70488;BME280;57976;48.174;16.370;2024-01-25T09:02:57;99931.14;;;10.24;68.02
70488;BME280;57976;48.174;16.370;2024-01-25T09:04:59;99932.70;;;10.27;68.35
70488;BME280;57976;48.174;16.370;2024-01-25T09:07:03;99927.20;;;10.30;68.49
70488;BME280;57976;48.174;16.370;2024-01-25T09:09:09;99930.99;;;10.28;68.27
70488;BME280;57976;48.174;16.370;2024-01-25T09:11:15;99942.34;;;10.25;68.51
70488;BME280;57976;48.174;16.370;2024-01-25T09:13:23;99943.57;;;10.25;68.44
70488;BME280;57976;48.174;16.370;2024-01-25T09:15:26;99958.40;;;10.24;69.06
70488;BME280;57976;48.174;16.370;2024-01-25T09:17:29;99960.61;;;10.25;69.24
70488;BME280;57976;48.174;16.370;2024-01-25T09:19:32;99956.27;;;10.27;69.92
70488;BME280;57976;48.174;16.370;2024-01-25T09:21:37;99961.36;;;10.29;70.37
70488;BME280;57976;48.174;16.370;2024-01-25T09:23:40;99969.00;;;10.32;69.01
70488;BME280;57976;48.174;16.370;2024-01-25T09:25:47;99980.96;;;10.36;68.69
70488;BME280;57976;48.174;16.370;2024-01-25T09:27:52;99985.54;;;10.40;68.45
70488;BME280;57976;48.174;16.370;2024-01-25T09:29:56;100001.49;;;10.47;67.96
70488;BME280;57976;48.174;16.370;2024-01-25T09:32:06;100004.55;;;10.51;66.77
70488;BME280;57976;48.174;16.370;2024-01-25T09:34:09;100002.71;;;10.54;67.08
70488;BME280;57976;48.174;16.370;2024-01-25T09:36:16;100011.17;;;10.56;66.41
70488;BME280;57976;48.174;16.370;2024-01-25T09:38:20;100002.02;;;10.58;66.36
70488;BME280;57976;48.174;16.370;2024-01-25T09:40:25;100004.95;;;10.59;66.53
70488;BME280;57976;48.174;16.370;2024-01-25T09:42:28;100004.34;;;10.63;66.76
70488;BME280;57976;48.174;16.370;2024-01-25T09:44:31;100003.80;;;10.68;66.07
70488;BME280;57976;48.174;16.370;2024-01-25T09:46:35;99994.00;;;10.71;65.74
70488;BME280;57976;48.174;16.370;2024-01-25T09:48:42;99992.21;;;10.76;65.63
70488;BME280;57976;48.174;16.370;2024-01-25T09:50:47;100000.60;;;10.80;65.53
70488;BME280;57976;48.174;16.370;2024-01-25T09:52:55;99991.79;;;10.85;65.34
70488;BME280;57976;48.174;16.370;2024-01-25T09:55:06;99995.55;;;10.89;65.53
70488;BME280;57976;48.174;16.370;2024-01-25T09:57:17;99993.25;;;10.89;65.98
70488;BME280;57976;48.174;16.370;2024-01-25T09:59:25;99997.36;;;10.91;66.38
70488;BME280;57976;48.174;16.370;2024-01-25T10:01:30;99998.26;;;10.93;66.89
70488;BME280;57976;48.174;16.370;2024-01-25T10:03:33;100001.13;;;10.96;66.27
70488;BME280;57976;48.174;16.370;2024-01-25T10:05:36;100011.02;;;10.98;65.64
70488;BME280;57976;48.174;16.370;2024-01-25T10:07:40;100008.33;;;10.95;65.47
70488;BME280;57976;48.174;16.370;2024-01-25T10:09:44;100008.09;;;10.96;65.04
70488;BME280;57976;48.174;16.370;2024-01-25T10:11:50;100012.85;;;10.96;64.94
70488;BME280;57976;48.174;16.370;2024-01-25T10:14:06;100015.16;;;10.97;65.88
70488;BME280;57976;48.174;16.370;2024-01-25T10:16:11;100015.95;;;10.98;66.37
70488;BME280;57976;48.174;16.370;2024-01-25T10:18:15;100024.67;;;11.00;66.14
70488;BME280;57976;48.174;16.370;2024-01-25T10:20:32;100024.38;;;10.99;66.69
70488;BME280;57976;48.174;16.370;2024-01-25T10:22:36;100025.80;;;10.95;67.34
70488;BME280;57976;48.174;16.370;2024-01-25T10:24:40;100035.29;;;10.93;67.51
70488;BME280;57976;48.174;16.370;2024-01-25T10:26:46;100034.83;;;10.89;68.20
70488;BME280;57976;48.174;16.370;2024-01-25T10:28:55;100035.13;;;10.84;68.20
70488;BME280;57976;48.174;16.370;2024-01-25T10:31:05;100031.01;;;10.83;69.01
70488;BME280;57976;48.174;16.370;2024-01-25T10:33:09;100008.32;;;10.82;69.13
70488;BME280;57976;48.174;16.370;2024-01-25T10:35:15;100017.39;;;10.82;70.05
70488;BME280;57976;48.174;16.370;2024-01-25T10:37:23;100020.52;;;10.86;69.67
70488;BME280;57976;48.174;16.370;2024-01-25T10:39:28;100013.30;;;10.86;69.71
70488;BME280;57976;48.174;16.370;2024-01-25T10:41:33;100010.56;;;10.90;69.69
70488;BME280;57976;48.174;16.370;2024-01-25T10:43:36;100004.16;;;10.93;69.82
70488;BME280;57976;48.174;16.370;2024-01-25T10:45:42;100007.24;;;10.91;69.26
70488;BME280;57976;48.174;16.370;2024-01-25T10:47:48;100005.33;;;10.91;69.63
70488;BME280;57976;48.174;16.370;2024-01-25T10:49:55;99986.83;;;10.91;69.42
70488;BME280;57976;48.174;16.370;2024-01-25T10:52:01;100002.67;;;10.89;68.25